createdAt,value
2019-05-03T00:00:14.895Z,28.42
2019-05-03T00:02:52.601Z,29.80
2019-05-03T00:05:33.880Z,31.90
2019-05-03T00:08:10.037Z,31.90
2019-05-03T00:10:45.987Z,29.77
2019-05-03T00:13:22.251Z,30.00
2019-05-03T00:15:59.757Z,27.15
2019-05-03T00:18:35.816Z,30.30
2019-05-03T00:21:11.802Z,31.12
2019-05-03T00:23:47.724Z,27.73
2019-05-03T00:26:23.880Z,27.95
2019-05-03T00:28:59.831Z,26.35
2019-05-03T00:31:36.007Z,25.62
2019-05-03T00:34:13.484Z,28.25
2019-05-03T00:36:53.795Z,27.77
2019-05-03T00:39:32.525Z,27.13
2019-05-03T00:42:11.841Z,28.05
2019-05-03T00:44:47.463Z,25.23
2019-05-03T00:47:23.435Z,24.37
2019-05-03T00:49:59.466Z,25.20
2019-05-03T00:52:35.364Z,25.12
2019-05-03T00:55:18.520Z,24.47
2019-05-03T00:57:49.085Z,25.08
2019-05-03T01:00:25.042Z,25.08
2019-05-03T01:03:02.223Z,24.90
2019-05-03T01:05:39.313Z,24.70
2019-05-03T01:08:16.289Z,24.67
2019-05-03T01:10:52.236Z,25.08
2019-05-03T01:13:28.191Z,25.02
2019-05-03T01:16:05.803Z,25.57
2019-05-03T01:18:41.860Z,25.65
2019-05-03T01:21:17.905Z,25.45
2019-05-03T01:23:53.869Z,26.15
2019-05-03T01:26:31.820Z,26.45
2019-05-03T01:29:07.465Z,25.45
2019-05-03T01:31:43.367Z,25.65
2019-05-03T01:34:19.391Z,26.77
2019-05-03T01:36:55.382Z,26.40
2019-05-03T01:39:31.797Z,26.87
2019-05-03T01:42:07.923Z,27.55
2019-05-03T01:44:43.982Z,27.22
2019-05-03T01:47:21.901Z,28.10
2019-05-03T01:49:59.580Z,27.62
2019-05-03T01:52:37.174Z,28.77
2019-05-03T01:55:15.810Z,29.42
2019-05-03T01:57:52.469Z,29.60
2019-05-03T02:00:31.890Z,28.25
2019-05-03T02:03:09.488Z,30.95
2019-05-03T02:05:47.094Z,31.75
2019-05-03T02:08:23.041Z,33.53
2019-05-03T02:10:59.451Z,31.23
2019-05-03T02:13:35.381Z,32.63
2019-05-03T02:16:11.625Z,30.35
2019-05-03T02:18:47.681Z,32.00
2019-05-03T02:21:23.858Z,32.83
2019-05-03T02:23:59.811Z,32.17
2019-05-03T02:26:35.760Z,33.10
2019-05-03T02:29:12.563Z,34.27
2019-05-03T02:31:48.695Z,33.85
2019-05-03T02:34:24.756Z,32.15
2019-05-03T02:37:03.048Z,33.25
2019-05-03T02:39:38.407Z,34.75
2019-05-03T02:42:16.064Z,31.23
2019-05-03T02:44:55.356Z,33.78
2019-05-03T02:47:47.190Z,32.08
2019-05-03T02:50:25.801Z,33.40
2019-05-03T02:53:00.317Z,33.10
2019-05-03T02:55:36.449Z,32.55
2019-05-03T02:58:12.424Z,33.23
2019-05-03T03:00:57.403Z,32.33
2019-05-03T03:03:36.285Z,32.95
2019-05-03T03:06:15.510Z,33.78
2019-05-03T03:08:51.268Z,34.50
2019-05-03T03:11:30.759Z,34.90
2019-05-03T03:14:08.130Z,39.18
2019-05-03T03:16:46.451Z,42.35
2019-05-03T03:19:26.201Z,41.63
2019-05-03T03:22:05.946Z,42.03
2019-05-03T03:24:45.795Z,48.68
2019-05-03T03:27:25.711Z,45.28
2019-05-03T03:30:29.759Z,42.20
2019-05-03T03:33:09.416Z,36.98
2019-05-03T03:35:48.848Z,36.33
2019-05-03T03:38:26.056Z,43.80
2019-05-03T03:41:05.898Z,45.70
2019-05-03T03:43:46.086Z,37.98
2019-05-03T03:46:25.163Z,35.45
2019-05-03T03:49:01.920Z,34.53
2019-05-03T03:51:39.733Z,35.03
2019-05-03T03:54:18.747Z,34.27
2019-05-03T03:57:03.948Z,35.38
2019-05-03T03:59:36.271Z,33.25
2019-05-03T04:02:12.160Z,33.83
2019-05-03T04:04:48.398Z,35.23
2019-05-03T04:07:26.215Z,33.23
2019-05-03T04:10:02.283Z,32.05
2019-05-03T04:12:40.444Z,32.65
2019-05-03T04:15:26.083Z,31.30
2019-05-03T04:18:06.420Z,32.53
2019-05-03T04:20:42.389Z,34.60
2019-05-03T04:23:19.472Z,42.78
2019-05-03T04:25:56.690Z,59.03
2019-05-03T04:28:36.194Z,34.65
2019-05-03T04:31:11.534Z,29.67
2019-05-03T04:33:47.425Z,30.02
2019-05-03T04:36:25.990Z,30.05
2019-05-03T04:39:01.134Z,27.67
2019-05-03T04:41:38.645Z,27.10
2019-05-03T04:44:15.453Z,30.70
2019-05-03T04:46:55.068Z,57.55
2019-05-03T04:49:29.379Z,69.20
2019-05-03T04:52:05.952Z,45.55
2019-05-03T04:54:56.034Z,39.27
2019-05-03T04:57:39.802Z,30.52
2019-05-03T05:00:11.407Z,29.50
2019-05-03T05:02:47.792Z,31.87
2019-05-03T05:05:26.185Z,31.82
2019-05-03T05:08:01.320Z,28.90
2019-05-03T05:10:37.291Z,29.87
2019-05-03T05:13:15.518Z,26.17
2019-05-03T05:15:50.959Z,26.37
2019-05-03T05:18:28.538Z,25.27
2019-05-03T05:21:06.134Z,35.28
2019-05-03T05:23:49.477Z,23.67
2019-05-03T05:26:27.068Z,23.22
2019-05-03T05:29:05.340Z,21.15
2019-05-03T05:31:41.438Z,22.42
2019-05-03T05:34:17.384Z,23.25
2019-05-03T05:36:55.310Z,23.50
2019-05-03T05:39:31.065Z,22.07
2019-05-03T05:42:07.045Z,22.93
2019-05-03T05:44:42.938Z,21.87
2019-05-03T05:47:29.596Z,22.13
2019-05-03T05:50:09.082Z,21.60
2019-05-03T05:52:45.062Z,22.32
2019-05-03T05:55:25.277Z,23.50
2019-05-03T05:58:08.118Z,21.50
2019-05-03T06:00:55.133Z,21.30
2019-05-03T06:03:31.309Z,20.52
2019-05-03T06:06:08.956Z,22.58
2019-05-03T06:08:46.466Z,21.37
2019-05-03T06:11:25.720Z,21.00
2019-05-03T06:14:05.014Z,20.90
2019-05-03T06:16:49.671Z,20.32
2019-05-03T06:19:37.636Z,20.37
2019-05-03T06:22:29.564Z,21.05
2019-05-03T06:25:26.471Z,21.75
2019-05-03T06:28:17.755Z,22.60
2019-05-03T06:30:54.470Z,22.17
2019-05-03T06:33:30.516Z,21.82
2019-05-03T06:36:06.560Z,23.80
2019-05-03T06:38:42.442Z,23.12
2019-05-03T06:41:18.331Z,23.50
2019-05-03T06:43:55.220Z,23.38
2019-05-03T06:46:45.519Z,23.73
2019-05-03T06:49:21.746Z,23.22
2019-05-03T06:51:57.658Z,24.23
2019-05-03T06:54:34.663Z,24.27
2019-05-03T06:57:14.691Z,25.72
2019-05-03T06:59:55.075Z,26.25
2019-05-03T07:02:41.672Z,28.50
2019-05-03T07:05:22.147Z,25.60
2019-05-03T07:07:59.664Z,25.95
2019-05-03T07:10:44.508Z,22.27
2019-05-03T07:13:20.756Z,21.30
2019-05-03T07:15:56.673Z,18.27
2019-05-03T07:18:34.995Z,16.27
2019-05-03T07:21:10.293Z,13.20
2019-05-03T07:23:46.312Z,13.45
2019-05-03T07:26:22.230Z,12.07
2019-05-03T07:28:58.159Z,11.40
2019-05-03T07:31:35.374Z,13.28
2019-05-03T07:34:12.981Z,9.53
2019-05-03T07:36:49.046Z,7.95
2019-05-03T07:39:25.003Z,8.38
2019-05-03T07:42:00.965Z,7.95
2019-05-03T07:44:37.058Z,6.85
2019-05-03T07:47:14.880Z,5.95
2019-05-03T07:49:50.855Z,5.10
2019-05-03T07:52:26.765Z,5.62
2019-05-03T07:55:04.617Z,4.35
2019-05-03T07:57:42.285Z,4.53
2019-05-03T08:00:20.125Z,4.60
2019-05-03T08:02:56.028Z,5.15
2019-05-03T08:05:32.027Z,5.00
2019-05-03T08:08:07.909Z,4.75
2019-05-03T08:10:45.009Z,4.80
2019-05-03T08:13:21.011Z,6.03
2019-05-03T08:15:56.925Z,5.17
2019-05-03T08:18:32.825Z,4.72
2019-05-03T08:21:08.771Z,4.67
2019-05-03T08:23:45.475Z,5.60
2019-05-03T08:26:21.339Z,7.50
2019-05-03T08:28:57.320Z,10.53
2019-05-03T08:31:38.021Z,19.37
2019-05-03T08:34:15.594Z,9.78
2019-05-03T08:37:09.457Z,9.80
2019-05-03T08:39:45.390Z,8.60
2019-05-03T08:42:25.222Z,10.00
2019-05-03T08:45:00.712Z,9.95
2019-05-03T08:47:36.717Z,9.20
2019-05-03T08:50:17.545Z,10.98
2019-05-03T08:52:50.653Z,10.55
2019-05-03T08:55:38.106Z,8.90
2019-05-03T08:58:18.589Z,8.03
2019-05-03T09:00:54.792Z,6.97
2019-05-03T09:03:30.792Z,7.03
2019-05-03T09:06:06.728Z,7.22
2019-05-03T09:08:42.709Z,7.42
2019-05-03T09:11:30.658Z,8.68
2019-05-03T09:14:04.583Z,8.40
2019-05-03T09:16:40.599Z,8.58
2019-05-03T09:19:17.001Z,7.67
2019-05-03T09:21:54.870Z,5.67
2019-05-03T09:24:30.573Z,4.80
2019-05-03T09:27:06.790Z,5.72
2019-05-03T09:29:45.549Z,6.37
2019-05-03T09:32:20.389Z,6.85
2019-05-03T09:34:56.255Z,6.62
2019-05-03T09:37:32.172Z,6.55
2019-05-03T09:40:08.416Z,7.30
2019-05-03T09:42:44.654Z,7.40
2019-05-03T09:45:20.738Z,8.65
2019-05-03T09:47:56.715Z,9.95
2019-05-03T09:50:32.968Z,9.10
2019-05-03T09:53:09.154Z,8.80
2019-05-03T09:55:45.294Z,8.65
2019-05-03T09:58:21.256Z,9.78
2019-05-03T10:00:57.315Z,9.28
2019-05-03T10:03:33.559Z,8.43
2019-05-03T10:06:09.617Z,7.83
2019-05-03T10:08:45.679Z,8.10
2019-05-03T10:11:21.654Z,8.15
2019-05-03T10:13:57.916Z,9.15
2019-05-03T10:16:35.553Z,8.05
2019-05-03T10:19:14.310Z,9.93
2019-05-03T10:21:49.364Z,9.38
2019-05-03T10:24:25.319Z,9.70
2019-05-03T10:27:01.265Z,8.55
2019-05-03T10:29:38.347Z,8.05
2019-05-03T10:32:25.372Z,8.08
2019-05-03T10:35:05.490Z,8.10
2019-05-03T10:37:40.874Z,8.83
2019-05-03T10:40:19.795Z,7.08
2019-05-03T10:42:56.496Z,7.03
2019-05-03T10:45:32.417Z,7.35
2019-05-03T10:48:08.689Z,7.22
2019-05-03T10:50:44.661Z,6.80
2019-05-03T10:53:22.169Z,5.45
2019-05-03T10:56:22.899Z,4.97
2019-05-03T10:59:11.631Z,5.47
2019-05-03T11:01:58.023Z,5.33
2019-05-03T11:04:35.619Z,5.40
2019-05-03T11:07:11.718Z,6.37
2019-05-03T11:09:51.907Z,5.65
2019-05-03T11:12:25.576Z,5.00
2019-05-03T11:15:02.633Z,6.65
2019-05-03T11:17:38.573Z,6.00
2019-05-03T11:20:28.203Z,6.03
2019-05-03T11:22:54.799Z,6.05
2019-05-03T11:25:30.856Z,6.25
2019-05-03T11:28:08.961Z,5.22
2019-05-03T11:30:53.079Z,5.65
2019-05-03T11:33:36.942Z,6.42
2019-05-03T11:36:14.947Z,6.40
2019-05-03T11:38:51.937Z,7.20
2019-05-03T11:41:32.761Z,6.28
2019-05-03T11:44:24.640Z,6.22
2019-05-03T11:47:00.696Z,6.50
2019-05-03T11:49:37.056Z,7.17
2019-05-03T11:52:15.566Z,8.60
2019-05-03T11:54:50.704Z,6.92
2019-05-03T11:57:28.112Z,8.08
2019-05-03T12:00:05.994Z,8.03
2019-05-03T12:02:44.741Z,7.15
2019-05-03T12:05:28.253Z,12.45
2019-05-03T12:08:05.448Z,8.88
2019-05-03T12:10:52.345Z,6.87
2019-05-03T12:13:31.712Z,6.22
2019-05-03T12:16:18.301Z,7.17
2019-05-03T12:18:52.925Z,7.53
2019-05-03T12:21:25.935Z,7.00
2019-05-03T12:24:01.354Z,7.78
2019-05-03T12:26:43.789Z,8.08
2019-05-03T12:29:15.363Z,7.47
2019-05-03T12:31:51.366Z,6.75
2019-05-03T12:34:27.346Z,5.42
2019-05-03T12:37:05.113Z,6.05
2019-05-03T12:39:40.990Z,5.30
2019-05-03T12:42:18.810Z,5.97
2019-05-03T12:44:55.178Z,6.55
2019-05-03T12:47:34.474Z,8.43
2019-05-03T12:50:10.437Z,14.38
2019-05-03T12:52:50.369Z,13.83
2019-05-03T12:55:24.755Z,5.15
2019-05-03T12:58:01.376Z,9.40
2019-05-03T13:00:55.785Z,15.32
2019-05-03T13:03:33.588Z,7.72
2019-05-03T13:06:09.491Z,5.65
2019-05-03T13:08:45.776Z,5.00
2019-05-03T13:11:21.639Z,6.45
2019-05-03T13:13:57.614Z,7.37
2019-05-03T13:16:35.355Z,5.58
2019-05-03T13:19:11.377Z,5.72
2019-05-03T13:21:47.286Z,9.38
2019-05-03T13:24:25.948Z,6.30
2019-05-03T13:27:00.787Z,11.78
2019-05-03T13:29:36.670Z,16.93
2019-05-03T13:32:12.593Z,12.43
2019-05-03T13:34:48.531Z,5.42
2019-05-03T13:37:25.365Z,4.87
2019-05-03T13:40:01.330Z,4.70
2019-05-03T13:42:38.338Z,4.83
2019-05-03T13:45:14.493Z,4.78
2019-05-03T13:47:50.356Z,4.03
2019-05-03T13:50:26.347Z,4.25
2019-05-03T13:53:02.249Z,3.92
2019-05-03T13:55:38.231Z,5.65
2019-05-03T13:58:14.693Z,4.60
2019-05-03T14:00:51.231Z,5.40
2019-05-03T14:03:27.423Z,4.67
2019-05-03T14:06:07.658Z,4.67
2019-05-03T14:08:41.254Z,3.65
2019-05-03T14:11:18.371Z,5.47
2019-05-03T14:13:55.277Z,3.95
2019-05-03T14:16:31.302Z,7.25
2019-05-03T14:19:08.802Z,4.05
2019-05-03T14:21:49.051Z,4.17
2019-05-03T14:24:25.006Z,4.42
2019-05-03T14:27:00.972Z,4.58
2019-05-03T14:29:36.916Z,3.90
2019-05-03T14:32:28.729Z,4.40
2019-05-03T14:35:02.756Z,4.00
2019-05-03T14:37:38.744Z,3.85
2019-05-03T14:40:14.882Z,4.50
2019-05-03T14:42:50.840Z,5.55
2019-05-03T14:45:26.789Z,5.42
2019-05-03T14:48:06.249Z,4.35
2019-05-03T14:50:42.706Z,8.00
2019-05-03T14:53:18.649Z,5.83
2019-05-03T14:55:56.245Z,5.72
2019-05-03T14:58:38.082Z,6.92
2019-05-03T15:01:18.044Z,6.28
2019-05-03T15:03:55.276Z,5.20
2019-05-03T15:06:32.020Z,4.12
2019-05-03T15:09:08.920Z,4.97
2019-05-03T15:11:45.346Z,4.45
2019-05-03T15:14:21.340Z,4.83
2019-05-03T15:16:57.316Z,4.33
2019-05-03T15:19:45.364Z,3.87
2019-05-03T15:22:21.421Z,3.02
2019-05-03T15:24:57.354Z,4.80
2019-05-03T15:27:35.259Z,6.05
2019-05-03T15:30:11.941Z,4.30
2019-05-03T15:32:57.617Z,6.30
2019-05-03T15:35:25.865Z,5.70
2019-05-03T15:38:01.980Z,5.70
2019-05-03T15:40:37.884Z,4.03
2019-05-03T15:43:21.290Z,3.50
2019-05-03T15:45:58.836Z,5.22
2019-05-03T15:48:36.534Z,5.10
2019-05-03T15:51:12.443Z,5.15
2019-05-03T15:53:48.415Z,4.58
2019-05-03T15:56:25.261Z,4.20
2019-05-03T15:59:01.352Z,4.37
2019-05-03T16:01:37.308Z,4.22
2019-05-03T16:04:14.338Z,4.47
2019-05-03T16:06:50.357Z,4.72
2019-05-03T16:09:26.253Z,5.40
2019-05-03T16:12:02.164Z,3.83
2019-05-03T16:14:38.042Z,4.08
2019-05-03T16:17:14.753Z,4.35
2019-05-03T16:19:50.687Z,8.88
2019-05-03T16:22:26.637Z,5.00
2019-05-03T16:25:02.552Z,3.67
2019-05-03T16:27:40.032Z,3.52
2019-05-03T16:30:29.568Z,3.90
2019-05-03T16:33:05.469Z,4.15
2019-05-03T16:35:44.380Z,6.78
2019-05-03T16:38:19.965Z,4.28
2019-05-03T16:40:55.835Z,3.55
2019-05-03T16:43:31.707Z,3.52
2019-05-03T16:46:07.632Z,10.30
2019-05-03T16:48:44.872Z,6.50
2019-05-03T16:51:20.942Z,8.60
2019-05-03T16:53:57.213Z,6.17
2019-05-03T16:56:35.126Z,5.67
2019-05-03T16:59:10.898Z,5.20
2019-05-03T17:01:46.927Z,5.97
2019-05-03T17:04:31.714Z,5.10
2019-05-03T17:07:15.276Z,5.58
2019-05-03T17:10:01.646Z,5.87
2019-05-03T17:12:38.560Z,6.58
2019-05-03T17:15:14.869Z,5.50
2019-05-03T17:17:50.749Z,7.10
2019-05-03T17:20:26.662Z,7.20
2019-05-03T17:23:04.820Z,9.08
2019-05-03T17:25:40.256Z,21.75
2019-05-03T17:28:16.262Z,12.28
2019-05-03T17:30:52.554Z,13.70
2019-05-03T17:33:28.657Z,16.52
2019-05-03T17:36:05.180Z,23.92
2019-05-03T17:38:41.190Z,29.95
2019-05-03T17:41:18.665Z,9.90
2019-05-03T17:46:31.053Z,6.20
2019-05-03T17:49:07.232Z,5.90
2019-05-03T17:51:45.604Z,5.42
2019-05-03T17:54:29.002Z,5.65
2019-05-03T17:57:18.695Z,5.40
2019-05-03T17:59:56.196Z,4.80
2019-05-03T18:02:39.199Z,4.20
2019-05-03T18:05:34.364Z,4.58
2019-05-03T18:08:14.837Z,5.67
2019-05-03T18:10:52.300Z,5.97
2019-05-03T18:13:29.180Z,6.53
2019-05-03T18:16:05.292Z,6.15
2019-05-03T18:18:42.414Z,5.95
2019-05-03T18:21:18.325Z,6.00
2019-05-03T18:23:54.619Z,6.90
2019-05-03T18:26:30.523Z,7.58
2019-05-03T18:29:06.420Z,8.55
2019-05-03T18:31:44.507Z,10.60
2019-05-03T18:34:22.553Z,11.00
2019-05-03T18:36:58.128Z,10.60
2019-05-03T18:39:34.671Z,10.43
2019-05-03T18:42:12.251Z,10.78
2019-05-03T18:44:49.742Z,10.28
2019-05-03T18:47:27.093Z,9.25
2019-05-03T18:50:04.349Z,10.45
2019-05-03T18:52:40.279Z,11.28
2019-05-03T18:55:16.237Z,11.73
2019-05-03T18:57:54.729Z,9.43
2019-05-03T19:00:31.481Z,9.80
2019-05-03T19:03:07.365Z,9.50
2019-05-03T19:05:45.402Z,12.98
2019-05-03T19:08:24.703Z,14.55
2019-05-03T19:11:08.352Z,30.30
2019-05-03T19:13:45.848Z,19.45
2019-05-03T19:16:29.684Z,11.57
2019-05-03T19:19:06.015Z,11.20
2019-05-03T19:21:42.013Z,10.85
2019-05-03T19:24:17.948Z,18.17
2019-05-03T19:26:56.091Z,16.73
2019-05-03T19:29:32.054Z,17.12
2019-05-03T19:32:07.971Z,11.45
2019-05-03T19:34:50.239Z,9.35
2019-05-03T19:37:21.461Z,8.78
2019-05-03T19:39:57.350Z,7.75
2019-05-03T19:42:35.246Z,11.18
2019-05-03T19:45:11.231Z,9.43
2019-05-03T19:47:47.187Z,9.50
2019-05-03T19:50:24.839Z,10.75
2019-05-03T19:53:07.951Z,11.05
2019-05-03T19:55:44.843Z,11.73
2019-05-03T19:58:21.482Z,12.28
2019-05-03T20:01:15.247Z,9.50
2019-05-03T20:03:55.704Z,7.33
2019-05-03T20:06:39.104Z,9.28
2019-05-03T20:09:19.386Z,9.15
2019-05-03T20:11:55.373Z,7.80
2019-05-03T20:14:31.264Z,8.35
2019-05-03T20:17:07.151Z,8.53
2019-05-03T20:19:45.055Z,9.00
2019-05-03T20:22:20.796Z,7.87
2019-05-03T20:24:57.199Z,8.30
2019-05-03T20:27:35.030Z,9.23
2019-05-03T20:30:10.950Z,8.75
2019-05-03T20:32:46.848Z,7.87
2019-05-03T20:35:24.958Z,8.38
2019-05-03T20:38:00.330Z,8.85
2019-05-03T20:40:36.230Z,6.75
2019-05-03T20:43:16.599Z,8.13
2019-05-03T20:45:54.697Z,7.72
2019-05-03T20:48:30.757Z,7.58
2019-05-03T20:51:06.657Z,7.90
2019-05-03T20:53:42.566Z,7.87
2019-05-03T20:56:18.464Z,10.53
2019-05-03T20:58:55.005Z,16.57
2019-05-03T21:01:31.129Z,16.07
2019-05-03T21:04:07.513Z,13.43
2019-05-03T21:06:45.296Z,12.33
2019-05-03T21:09:21.027Z,12.60
2019-05-03T21:11:56.970Z,16.00
2019-05-03T21:14:34.888Z,17.35
2019-05-03T21:17:18.072Z,16.95
2019-05-03T21:19:55.591Z,20.50
2019-05-03T21:22:32.671Z,17.20
2019-05-03T21:25:10.257Z,16.62
2019-05-03T21:27:46.256Z,13.80
2019-05-03T21:30:22.374Z,12.37
2019-05-03T21:32:58.653Z,11.08
2019-05-03T21:35:41.387Z,10.32
2019-05-03T21:38:12.410Z,13.28
2019-05-03T21:40:48.357Z,17.12
2019-05-03T21:43:25.702Z,14.00
2019-05-03T21:46:06.244Z,14.20
2019-05-03T21:48:59.736Z,13.22
2019-05-03T21:51:35.628Z,11.70
2019-05-03T21:54:11.569Z,12.30
2019-05-03T21:56:47.483Z,11.83
2019-05-03T21:59:26.446Z,11.43
2019-05-03T22:02:01.155Z,10.23
2019-05-03T22:04:37.026Z,9.93
2019-05-03T22:07:12.905Z,9.55
2019-05-03T22:09:48.855Z,9.80
2019-05-03T22:12:24.958Z,9.38
2019-05-03T22:15:18.319Z,9.68
2019-05-03T22:17:58.712Z,9.85
2019-05-03T22:20:36.150Z,9.55
2019-05-03T22:23:15.005Z,9.10
2019-05-03T22:25:51.971Z,9.48
2019-05-03T22:28:29.553Z,8.60
2019-05-03T22:31:06.863Z,9.10
2019-05-03T22:33:46.095Z,9.40
2019-05-03T22:36:20.469Z,11.75
2019-05-03T22:38:56.490Z,12.28
2019-05-03T22:41:34.643Z,12.60
2019-05-03T22:44:10.272Z,12.33
2019-05-03T22:46:46.152Z,12.13
2019-05-03T22:49:22.065Z,11.08
2019-05-03T22:51:57.983Z,11.03
2019-05-03T22:54:34.598Z,10.10
2019-05-03T22:57:10.610Z,8.75
2019-05-03T22:59:46.561Z,9.23
2019-05-03T23:02:22.473Z,7.90
2019-05-03T23:04:58.481Z,10.18
2019-05-03T23:07:37.269Z,8.95
2019-05-03T23:10:12.121Z,7.65
2019-05-03T23:12:48.088Z,7.53
2019-05-03T23:15:24.495Z,7.67
2019-05-03T23:18:01.527Z,7.72
2019-05-03T23:20:45.269Z,8.13
2019-05-03T23:23:39.040Z,9.25
2019-05-03T23:26:15.007Z,7.70
2019-05-03T23:28:50.962Z,8.85
2019-05-03T23:31:26.909Z,9.68
2019-05-03T23:34:04.838Z,10.38
2019-05-03T23:36:40.573Z,11.55
2019-05-03T23:39:16.520Z,10.82
2019-05-03T23:41:52.474Z,9.80
2019-05-03T23:44:28.446Z,10.58
2019-05-03T23:47:15.049Z,10.63
2019-05-03T23:49:51.004Z,9.10
2019-05-03T23:52:28.499Z,8.15
2019-05-03T23:55:25.297Z,9.20
2019-05-03T23:58:01.289Z,8.73
